Time;durP1;ratioP1;P1;durP2;ratioP2;P2;SDS_P1;SDS_P2;PMS_P1;PMS_P2;Temp;Humidity;BMP_temperature;BMP_pressure;BME280_temperature;BME280_humidity;BME280_pressure;Samples;Min_cycle;Max_cycle;Signal;HPM_P1;HPM_P2
2021/12/25 00:01:24;;;;;;;32.28;8.20;;;;;;;18.36;48.96;99715.84;4954486;29;20030;-83
2021/12/25 00:03:52;;;;;;;27.25;7.00;;;;;;;18.41;48.58;99725.75;4954344;29;20047;-82
2021/12/25 00:06:18;;;;;;;27.30;6.13;;;;;;;18.28;49.06;99717.81;4954438;29;20482;-83
2021/12/25 00:08:44;;;;;;;21.52;6.28;;;;;;;18.19;49.32;99735.94;4954436;29;20097;-82
2021/12/25 00:11:11;;;;;;;27.20;5.68;;;;;;;18.04;49.69;99732.31;4954152;29;20043;-82
2021/12/25 00:13:41;;;;;;;29.02;7.85;;;;;;;18.18;49.14;99729.63;4954393;29;20051;-82
2021/12/25 00:16:07;;;;;;;28.05;7.78;;;;;;;18.06;49.61;99732.75;4954305;29;20479;-83
2021/12/25 00:18:34;;;;;;;36.75;8.68;;;;;;;18.19;49.15;99730.41;4954379;29;20034;-83
2021/12/25 00:21:00;;;;;;;49.58;11.05;;;;;;;18.37;48.66;99731.28;4954286;29;20053;-82
2021/12/25 00:23:26;;;;;;;40.22;9.43;;;;;;;18.42;48.41;99739.19;4954317;29;20063;-83
2021/12/25 00:26:03;;;;;;;35.25;9.52;;;;;;;18.22;49.09;99730.44;4937045;29;20031;-82
2021/12/25 00:36:10;;;;;;;25.85;9.32;;;;;;;17.86;49.55;99739.75;4957979;29;20031;-82
2021/12/25 00:38:37;;;;;;;38.30;9.52;;;;;;;17.91;49.50;99750.41;4957981;29;20030;-82
2021/12/25 00:41:03;;;;;;;22.88;7.22;;;;;;;17.91;49.24;99751.22;4957976;29;20023;-84
2021/12/25 00:43:29;;;;;;;34.58;9.65;;;;;;;17.91;49.55;99745.69;4957823;29;20421;-82
2021/12/25 00:45:55;;;;;;;26.55;8.63;;;;;;;17.78;49.62;99749.97;4957687;29;20042;-82
2021/12/25 00:48:21;;;;;;;37.78;8.90;;;;;;;17.85;49.51;99750.00;4957774;29;20063;-82
2021/12/25 00:50:46;;;;;;;38.20;9.10;;;;;;;17.58;50.07;99749.38;4957664;29;20504;-82
2021/12/25 00:53:12;;;;;;;31.73;9.00;;;;;;;17.52;50.05;99753.69;4940512;29;20394;-82
2021/12/25 00:55:37;;;;;;;37.67;10.05;;;;;;;17.54;49.93;99753.31;4957624;29;20034;-82
2021/12/25 00:58:03;;;;;;;38.97;8.80;;;;;;;17.72;49.14;99745.97;4957532;29;20059;-82
2021/12/25 01:00:29;;;;;;;37.47;8.32;;;;;;;17.43;50.42;99739.41;4957480;29;20035;-81
2021/12/25 01:02:54;;;;;;;26.17;7.47;;;;;;;17.48;50.04;99739.06;4957461;29;20087;-83
2021/12/25 01:05:20;;;;;;;21.60;7.18;;;;;;;17.55;49.97;99752.94;4957451;29;20397;-82
2021/12/25 01:07:46;;;;;;;32.25;9.32;;;;;;;17.16;50.99;99758.94;4940238;29;20046;-82
2021/12/25 01:10:16;;;;;;;38.30;9.68;;;;;;;17.46;50.16;99749.72;4957355;29;20378;-82
2021/12/25 01:15:28;;;;;;;27.63;7.85;;;;;;;17.42;50.12;99757.97;4957266;29;20028;-82
2021/12/25 01:26:04;;;;;;;32.85;9.35;;;;;;;17.60;49.99;99741.50;4957242;29;20042;-82
2021/12/25 01:40:19;;;;;;;31.13;8.02;;;;;;;17.53;49.96;99741.44;4956883;29;20401;-83
2021/12/25 01:47:58;;;;;;;29.92;9.10;;;;;;;17.68;49.83;99745.09;4913796;29;20450;-82
2021/12/25 01:50:28;;;;;;;33.80;7.38;;;;;;;17.66;49.57;99741.94;4956607;29;20031;-82
2021/12/25 01:52:56;;;;;;;32.85;9.30;;;;;;;17.82;49.03;99736.94;4956528;29;20031;-84
2021/12/25 01:55:30;;;;;;;47.45;10.20;;;;;;;17.90;49.11;99744.09;4956456;29;20166;-83
2021/12/25 01:57:59;;;;;;;21.08;7.40;;;;;;;17.65;49.77;99737.59;4956608;29;20476;-83
2021/12/25 02:00:35;;;;;;;26.73;8.38;;;;;;;17.83;49.21;99741.28;4956475;29;20102;-83
2021/12/25 02:03:04;;;;;;;39.42;9.63;;;;;;;17.80;48.97;99738.50;4956400;29;20023;-83
2021/12/25 02:05:30;;;;;;;34.97;7.28;;;;;;;18.09;48.46;99733.94;4956360;29;20031;-83
2021/12/25 02:07:55;;;;;;;37.63;9.23;;;;;;;18.05;48.46;99733.91;4956429;29;20027;-82
2021/12/25 02:10:21;;;;;;;32.78;9.57;;;;;;;17.75;49.30;99739.66;4956568;29;20036;-82
2021/12/25 02:12:47;;;;;;;31.05;7.75;;;;;;;17.83;48.89;99738.53;4956153;29;20051;-83
2021/12/25 02:15:18;;;;;;;32.10;7.13;;;;;;;17.84;48.60;99736.56;4955661;29;20039;-88
2021/12/25 02:20:23;;;;;;;26.98;7.20;;;;;;;17.73;48.78;99759.38;4956114;29;20027;-83
2021/12/25 02:22:51;;;;;;;35.22;7.63;;;;;;;17.46;49.58;99744.19;4938935;29;20039;-83
2021/12/25 02:25:17;;;;;;;32.40;9.75;;;;;;;18.10;48.17;99750.13;4938665;29;20035;-83
2021/12/25 02:27:46;;;;;;;35.20;8.80;;;;;;;17.90;48.59;99748.81;4938671;29;20028;-83
2021/12/25 02:30:11;;;;;;;35.85;9.55;;;;;;;17.89;48.44;99747.25;4955974;29;20059;-83
2021/12/25 02:32:37;;;;;;;28.38;7.20;;;;;;;17.91;48.49;99744.88;4955854;29;20382;-82
2021/12/25 02:35:03;;;;;;;40.72;8.88;;;;;;;18.08;47.98;99743.41;4955922;29;20474;-83
2021/12/25 02:37:29;;;;;;;25.13;6.65;;;;;;;18.10;47.93;99747.38;4955758;29;20482;-83
2021/12/25 02:39:55;;;;;;;38.13;8.82;;;;;;;18.15;47.55;99749.75;4955796;29;20034;-88
2021/12/25 02:42:21;;;;;;;32.88;8.27;;;;;;;18.07;47.91;99753.69;4955840;29;20034;-88
2021/12/25 02:44:47;;;;;;;30.08;7.68;;;;;;;18.00;48.27;99753.63;4955867;29;20027;-88
2021/12/25 02:47:19;;;;;;;31.83;7.15;;;;;;;18.11;47.63;99748.16;4955623;29;20367;-83
2021/12/25 02:49:50;;;;;;;25.77;8.65;;;;;;;17.84;48.28;99745.66;4955574;29;20023;-83
2021/12/25 02:52:17;;;;;;;23.45;6.22;;;;;;;17.65;48.81;99757.72;4955315;28;20034;-83
2021/12/25 02:54:43;;;;;;;36.05;7.43;;;;;;;17.97;47.97;99749.66;4955052;29;20089;-83
2021/12/25 02:57:10;;;;;;;22.80;7.40;;;;;;;17.66;48.81;99742.72;4938155;29;20058;-83
2021/12/25 02:59:36;;;;;;;31.90;7.65;;;;;;;18.08;47.68;99748.94;4955425;29;20027;-84
2021/12/25 03:02:07;;;;;;;30.13;7.68;;;;;;;17.98;47.84;99745.72;4938298;29;20580;-83
2021/12/25 03:04:35;;;;;;;21.40;7.45;;;;;;;17.65;48.61;99738.38;4955242;29;20418;-86
2021/12/25 03:07:00;;;;;;;28.98;6.70;;;;;;;17.74;48.55;99752.69;4955473;29;20477;-84
2021/12/25 03:09:26;;;;;;;24.90;8.73;;;;;;;17.80;48.14;99744.84;4955280;29;20066;-83
2021/12/25 03:11:52;;;;;;;26.45;7.63;;;;;;;17.62;48.53;99750.22;4954990;29;20547;-83
2021/12/25 03:14:37;;;;;;;23.55;6.38;;;;;;;17.86;48.22;99748.03;4937928;29;20075;-83
2021/12/25 03:17:03;;;;;;;30.40;6.97;;;;;;;17.76;48.22;99749.56;4937918;29;20039;-83
2021/12/25 03:19:31;;;;;;;22.25;6.28;;;;;;;17.87;48.10;99741.31;4955140;29;20035;-83
2021/12/25 03:21:59;;;;;;;30.30;7.13;;;;;;;17.92;47.85;99746.50;4954945;29;20042;-88
2021/12/25 03:24:26;;;;;;;39.50;10.02;;;;;;;18.05;47.77;99749.69;4954996;29;20030;-83
2021/12/25 03:26:55;;;;;;;41.28;8.90;;;;;;;17.81;48.05;99740.09;4955068;29;20027;-83
2021/12/25 03:29:20;;;;;;;28.73;9.05;;;;;;;17.86;48.11;99743.28;4954898;29;20034;-83
2021/12/25 03:31:46;;;;;;;32.80;8.18;;;;;;;17.89;48.38;99736.19;4954837;29;20027;-83
2021/12/25 03:34:12;;;;;;;27.67;7.78;;;;;;;17.68;48.62;99737.63;4954829;29;20023;-83
2021/12/25 03:36:38;;;;;;;27.15;7.25;;;;;;;17.57;48.92;99741.50;4954722;29;20038;-83
2021/12/25 03:39:06;;;;;;;30.92;8.07;;;;;;;17.66;48.67;99751.03;4954754;29;20493;-83
2021/12/25 03:41:32;;;;;;;29.90;7.18;;;;;;;17.70;48.72;99754.66;4954642;29;20027;-83
2021/12/25 03:44:00;;;;;;;35.65;8.60;;;;;;;17.70;48.48;99751.88;4954697;29;20479;-83
2021/12/25 03:46:29;;;;;;;29.90;8.45;;;;;;;17.73;48.54;99753.06;4954753;29;20062;-89
2021/12/25 03:59:36;;;;;;;22.95;6.43;;;;;;;17.63;48.40;99748.25;4954837;29;20171;-83
2021/12/25 04:02:07;;;;;;;32.35;9.65;;;;;;;17.72;48.31;99746.75;4954450;29;20106;-83
2021/12/25 04:04:36;;;;;;;24.20;5.38;;;;;;;17.37;48.98;99757.50;4953698;29;20038;-83
2021/12/25 04:08:06;;;;;;;29.88;6.10;;;;;;;17.12;49.37;99749.81;4954320;29;20019;-83
2021/12/25 04:10:02;;;;;;;23.77;6.85;;;;;;;17.44;48.53;99771.38;4945500;29;20483;-83
2021/12/25 04:12:28;;;;;;;27.08;6.75;;;;;;;17.21;49.04;99757.78;4954093;29;20118;-83
2021/12/25 04:14:54;;;;;;;34.88;7.47;;;;;;;17.32;48.78;99755.91;4954359;29;20055;-83
2021/12/25 04:17:19;;;;;;;32.00;7.60;;;;;;;17.65;47.90;99748.66;4954207;29;20035;-83
2021/12/25 04:19:45;;;;;;;27.20;5.47;;;;;;;17.43;48.50;99751.25;4954266;29;20034;-85
2021/12/25 04:22:17;;;;;;;21.50;6.00;;;;;;;16.98;49.44;99744.16;4954368;29;20438;-82
2021/12/25 04:24:45;;;;;;;24.90;6.47;;;;;;;17.15;49.03;99749.06;4954258;29;20031;-83
2021/12/25 04:27:12;;;;;;;39.03;10.15;;;;;;;17.49;48.29;99743.41;4936988;29;20513;-82
2021/12/25 04:29:58;;;;;;;30.33;7.97;;;;;;;17.53;48.17;99751.72;4954182;29;20098;-82
2021/12/25 05:02:14;;;;;;;31.58;8.25;;;;;;;17.54;48.06;99751.34;4954170;29;20038;-83
2021/12/25 05:04:45;;;;;;;31.98;7.55;;;;;;;17.67;48.24;99766.41;4953928;29;20031;-83
2021/12/25 05:07:12;;;;;;;21.00;6.47;;;;;;;17.68;47.73;99768.03;4936758;29;20039;-83
2021/12/25 05:09:38;;;;;;;28.05;7.88;;;;;;;17.79;47.67;99761.81;4953881;29;20062;-83
2021/12/25 05:12:05;;;;;;;25.35;6.82;;;;;;;17.59;48.28;99748.22;4936404;29;20425;-83
2021/12/25 05:14:30;;;;;;;24.52;5.53;;;;;;;17.37;48.77;99755.53;4953760;29;20031;-83
2021/12/25 05:16:56;;;;;;;30.35;8.07;;;;;;;17.51;48.38;99754.84;4955358;28;20034;-87
2021/12/25 05:19:21;;;;;;;31.35;8.60;;;;;;;17.77;47.76;99756.66;4956077;29;20031;-85
2021/12/25 05:21:47;;;;;;;24.00;7.22;;;;;;;17.38;48.41;99748.03;4955688;29;20155;-83
2021/12/25 05:24:13;;;;;;;21.88;6.95;;;;;;;17.42;48.52;99743.34;4957139;29;20183;-83
2021/12/25 05:26:39;;;;;;;33.88;7.57;;;;;;;17.64;47.93;99736.03;4957126;29;20478;-83
2021/12/25 05:29:06;;;;;;;22.33;5.20;;;;;;;17.27;48.71;99747.19;4956988;29;20023;-84
2021/12/25 05:31:34;;;;;;;33.40;9.50;;;;;;;17.48;48.69;99752.88;4956386;29;20023;-83
2021/12/25 05:34:00;;;;;;;28.80;8.57;;;;;;;17.46;48.70;99753.28;4937858;29;20042;-84
2021/12/25 05:36:27;;;;;;;32.13;8.50;;;;;;;17.77;47.73;99748.38;4920572;29;20035;-86
2021/12/25 05:38:58;;;;;;;28.75;6.90;;;;;;;17.73;48.03;99750.31;4937712;29;20032;-83
2021/12/25 05:41:29;;;;;;;32.55;8.77;;;;;;;17.95;47.45;99745.69;4937743;29;20058;-83
2021/12/25 05:43:56;;;;;;;39.33;7.20;;;;;;;17.84;47.54;99747.63;4937573;29;20031;-83
2021/12/25 05:46:22;;;;;;;34.47;7.43;;;;;;;17.83;47.59;99740.50;4937624;29;20036;-83
2021/12/25 05:48:50;;;;;;;34.22;8.15;;;;;;;17.90;46.92;99748.81;4937472;29;20045;-83
2021/12/25 05:51:17;;;;;;;34.45;6.57;;;;;;;17.93;46.90;99756.34;4937517;29;20067;-84
2021/12/25 05:53:43;;;;;;;23.80;6.15;;;;;;;17.89;46.80;99747.25;4937451;29;20024;-84
2021/12/25 05:56:09;;;;;;;21.52;5.40;;;;;;;18.07;46.17;99753.69;4937329;29;20036;-82
2021/12/25 05:58:35;;;;;;;18.52;4.03;;;;;;;17.83;46.93;99744.03;4937365;29;20543;-83
2021/12/25 06:01:03;;;;;;;27.90;7.15;;;;;;;17.90;46.88;99754.34;4937253;29;20032;-83
2021/12/25 06:03:29;;;;;;;22.70;5.18;;;;;;;17.86;46.73;99750.78;4937300;29;20077;-83
2021/12/25 06:05:56;;;;;;;21.13;6.28;;;;;;;18.03;46.09;99755.63;4937288;29;20036;-83
2021/12/25 06:08:21;;;;;;;18.58;5.85;;;;;;;17.91;46.67;99755.94;4937233;29;20087;-85
2021/12/25 06:10:47;;;;;;;11.93;3.13;;;;;;;18.13;46.06;99751.31;4936932;29;20420;-83
2021/12/25 06:13:17;;;;;;;22.98;6.22;;;;;;;18.18;45.89;99751.75;4920061;29;20028;-83
2021/12/25 06:15:43;;;;;;;24.83;5.75;;;;;;;17.74;46.86;99744.41;4919950;29;20473;-83
2021/12/25 06:18:10;;;;;;;20.73;4.50;;;;;;;17.95;46.33;99740.97;4919894;29;20046;-83
2021/12/25 06:20:37;;;;;;;22.35;4.88;;;;;;;17.81;46.66;99751.16;4936938;29;20506;-83
2021/12/25 06:23:02;;;;;;;30.00;7.05;;;;;;;17.84;46.37;99739.34;4936947;29;20457;-83
2021/12/25 06:25:28;;;;;;;25.95;5.43;;;;;;;17.72;46.95;99730.19;4936918;29;20115;-83
2021/12/25 06:27:54;;;;;;;28.50;6.22;;;;;;;17.70;47.15;99734.47;4935991;29;20035;-83
2021/12/25 06:30:20;;;;;;;26.00;6.70;;;;;;;17.85;46.82;99718.81;4936847;29;20090;-83
2021/12/25 06:32:46;;;;;;;25.65;6.22;;;;;;;17.66;46.85;99731.69;4936823;29;20060;-83
2021/12/25 06:35:12;;;;;;;22.77;4.85;;;;;;;17.59;47.28;99731.63;4936729;29;20051;-83
2021/12/25 06:37:41;;;;;;;18.83;5.32;;;;;;;17.41;47.45;99716.91;4936660;29;20458;-83
2021/12/25 06:40:09;;;;;;;23.80;5.53;;;;;;;17.14;48.30;99733.66;4936634;29;20027;-83
2021/12/25 06:42:35;;;;;;;28.75;6.18;;;;;;;17.24;48.20;99737.72;4936556;29;20027;-83
2021/12/25 06:45:01;;;;;;;20.33;5.35;;;;;;;17.37;47.82;99741.72;4936514;29;20466;-83
2021/12/25 06:47:26;;;;;;;23.70;6.25;;;;;;;17.32;47.44;99733.03;4936517;29;20036;-83
2021/12/25 06:49:52;;;;;;;29.73;6.15;;;;;;;17.35;47.86;99732.25;4936553;29;20066;-83
2021/12/25 06:52:18;;;;;;;29.80;6.47;;;;;;;17.55;47.52;99730.84;4936363;29;20587;-86
2021/12/25 06:54:43;;;;;;;25.27;6.78;;;;;;;17.49;47.53;99746.16;4936355;29;20119;-83
2021/12/25 06:57:09;;;;;;;27.70;6.43;;;;;;;17.61;47.08;99737.59;4936220;29;20482;-83
2021/12/25 06:59:35;;;;;;;25.77;7.68;;;;;;;17.68;47.05;99723.81;4936262;29;20489;-83
2021/12/25 07:02:00;;;;;;;26.95;5.80;;;;;;;17.37;47.91;99729.91;4936269;29;20036;-82
2021/12/25 07:04:26;;;;;;;20.70;5.82;;;;;;;17.60;47.09;99730.44;4918993;29;20036;-84
2021/12/25 07:06:52;;;;;;;21.25;4.60;;;;;;;17.20;48.03;99721.09;4936173;29;20099;-82
2021/12/25 07:09:17;;;;;;;35.53;6.55;;;;;;;17.25;47.86;99719.16;4936150;29;20031;-83
2021/12/25 07:11:43;;;;;;;28.75;6.43;;;;;;;17.29;47.77;99722.75;4918830;29;20478;-82
2021/12/25 07:14:11;;;;;;;24.08;7.60;;;;;;;17.17;48.03;99724.63;4935975;29;20039;-82
2021/12/25 07:16:38;;;;;;;30.45;6.25;;;;;;;17.59;46.96;99734.41;4935918;29;20042;-83
2021/12/25 07:19:03;;;;;;;25.20;5.97;;;;;;;17.21;48.03;99727.41;4935921;29;20036;-79
2021/12/25 07:21:29;;;;;;;32.42;6.22;;;;;;;17.22;47.71;99717.16;4935597;29;20043;-82
2021/12/25 07:23:55;;;;;;;23.52;5.10;;;;;;;17.11;48.06;99717.09;4919714;29;20028;-83
2021/12/25 07:26:21;;;;;;;28.27;6.00;;;;;;;17.29;47.86;99719.97;4923678;29;20036;-86
2021/12/25 07:28:48;;;;;;;24.60;6.53;;;;;;;17.09;48.27;99724.97;4937021;29;20019;-84
2021/12/25 07:31:14;;;;;;;24.25;6.97;;;;;;;17.51;47.18;99726.44;4917151;29;20038;-79
2021/12/25 07:33:43;;;;;;;25.70;6.88;;;;;;;17.48;47.29;99726.06;4934559;29;20501;-80
2021/12/25 07:36:10;;;;;;;19.17;4.55;;;;;;;17.24;47.73;99723.13;4935529;29;20026;-82
2021/12/25 07:38:36;;;;;;;26.35;5.53;;;;;;;17.24;47.59;99717.59;4935166;29;20035;-81
2021/12/25 07:41:03;;;;;;;22.00;4.90;;;;;;;16.63;49.28;99728.03;4935334;29;20402;-81
2021/12/25 07:43:28;;;;;;;17.75;4.80;;;;;;;17.07;48.14;99728.06;4918520;29;20434;-80
2021/12/25 07:45:54;;;;;;;20.92;4.90;;;;;;;17.39;47.18;99730.31;4935532;29;20020;-85
2021/12/25 07:48:23;;;;;;;17.98;6.13;;;;;;;17.15;47.80;99729.75;4935460;29;20475;-83
2021/12/25 07:50:48;;;;;;;21.75;5.28;;;;;;;16.96;47.93;99724.44;4918125;29;20541;-82
2021/12/25 07:53:16;;;;;;;17.95;5.35;;;;;;;16.76;48.38;99725.81;4934812;29;20027;-82
2021/12/25 07:55:44;;;;;;;22.30;4.93;;;;;;;17.25;47.43;99725.50;4935134;29;20529;-81
2021/12/25 07:58:10;;;;;;;18.25;4.07;;;;;;;16.92;48.42;99726.38;4935292;29;20034;-81
2021/12/25 08:00:36;;;;;;;30.15;6.90;;;;;;;17.05;48.16;99713.88;4935335;29;20027;-81
2021/12/25 08:03:02;;;;;;;22.20;5.32;;;;;;;16.95;48.47;99705.50;4934644;29;20110;-81
2021/12/25 08:05:29;;;;;;;24.23;6.57;;;;;;;16.91;48.19;99705.47;4935074;29;20100;-82
2021/12/25 08:07:54;;;;;;;22.65;5.53;;;;;;;17.28;47.14;99716.44;4933941;29;20479;-81
2021/12/25 08:10:21;;;;;;;33.58;8.32;;;;;;;17.19;47.48;99711.22;4934136;29;20113;-81
2021/12/25 08:12:53;;;;;;;32.38;6.20;;;;;;;17.05;47.80;99707.56;4943952;29;20051;-85
2021/12/25 08:15:23;;;;;;;19.15;4.40;;;;;;;17.15;47.32;99709.59;4935174;29;20035;-79
2021/12/25 08:17:50;;;;;;;34.50;8.60;;;;;;;17.22;47.20;99714.41;4934909;29;20040;-81
2021/12/25 08:20:17;;;;;;;28.23;6.80;;;;;;;17.20;47.55;99707.28;4938241;29;20082;-80
2021/12/25 08:22:43;;;;;;;18.35;4.60;;;;;;;17.16;47.38;99700.19;4946602;29;20023;-84
2021/12/25 08:25:10;;;;;;;23.33;5.90;;;;;;;17.11;47.14;99704.06;4936382;29;20028;-81
2021/12/25 08:27:37;;;;;;;22.88;4.57;;;;;;;17.13;47.00;99707.25;4941248;29;20030;-81
2021/12/25 08:30:07;;;;;;;23.42;5.63;;;;;;;16.93;47.50;99719.69;4942870;29;20030;-80
2021/12/25 08:32:33;;;;;;;25.92;6.15;;;;;;;17.17;47.17;99721.88;4939196;29;20141;-80
2021/12/25 08:34:59;;;;;;;19.88;5.03;;;;;;;17.22;46.86;99717.16;4939261;29;20038;-81
2021/12/25 08:37:26;;;;;;;21.10;5.28;;;;;;;16.90;47.63;99715.72;4941339;29;20036;-81
2021/12/25 08:39:54;;;;;;;28.50;6.88;;;;;;;16.97;47.33;99717.75;4941542;29;20034;-81
2021/12/25 08:42:21;;;;;;;34.20;5.10;;;;;;;16.83;47.75;99714.84;4946473;29;20582;-81
2021/12/25 08:47:27;;;;;;;23.98;4.43;;;;;;;16.71;47.81;99718.69;4943210;29;20457;-79
2021/12/25 08:49:53;;;;;;;31.25;6.53;;;;;;;16.65;48.04;99722.94;4925171;29;20023;-83
2021/12/25 08:52:21;;;;;;;27.00;7.18;;;;;;;16.89;47.60;99727.13;4950413;28;20031;-81
2021/12/25 08:54:48;;;;;;;25.73;6.90;;;;;;;17.04;46.94;99722.53;4951142;29;20083;-79
2021/12/25 08:57:18;;;;;;;20.20;5.57;;;;;;;16.91;47.62;99728.34;4946450;29;20027;-79
2021/12/25 08:59:45;;;;;;;23.50;5.40;;;;;;;16.88;47.57;99728.31;4944481;29;20023;-80
2021/12/25 09:02:17;;;;;;;21.08;4.53;;;;;;;16.94;47.29;99735.06;4947628;29;20024;-78
2021/12/25 09:04:45;;;;;;;20.73;5.47;;;;;;;17.26;46.50;99729.81;4941988;29;20085;-77
2021/12/25 09:07:12;;;;;;;22.67;5.30;;;;;;;17.01;47.54;99731.59;4937993;29;20479;-74
2021/12/25 09:09:39;;;;;;;23.05;4.88;;;;;;;16.83;47.73;99743.22;4938189;29;20035;-83
2021/12/25 09:12:09;;;;;;;21.77;4.47;;;;;;;16.80;47.96;99751.50;4944978;29;20046;-83
2021/12/25 09:14:37;;;;;;;18.38;4.57;;;;;;;16.90;47.83;99735.03;4941394;29;20031;-79
2021/12/25 09:17:05;;;;;;;26.35;6.75;;;;;;;16.77;48.34;99749.47;4941634;29;20553;-79
2021/12/25 09:19:32;;;;;;;31.17;7.53;;;;;;;16.99;47.82;99739.44;4952142;29;20566;-94
2021/12/25 09:21:58;;;;;;;30.75;7.25;;;;;;;17.12;47.41;99743.50;4930267;29;20024;-81
2021/12/25 09:24:26;;;;;;;21.20;5.05;;;;;;;16.97;47.55;99739.81;4944324;29;20019;-82
2021/12/25 09:26:53;;;;;;;16.83;3.85;;;;;;;16.73;48.34;99743.13;4940005;29;20087;-86
2021/12/25 09:29:20;;;;;;;22.20;5.13;;;;;;;16.67;48.56;99739.88;4920943;29;20491;-83
2021/12/25 09:31:47;;;;;;;26.05;5.82;;;;;;;16.62;48.79;99743.78;4937683;29;20059;-84
2021/12/25 09:34:13;;;;;;;24.40;5.93;;;;;;;16.96;47.74;99742.97;4937873;29;20448;-77
2021/12/25 09:36:39;;;;;;;19.25;4.63;;;;;;;16.60;48.71;99748.88;4937770;29;20038;-84
2021/12/25 09:39:07;;;;;;;23.73;6.05;;;;;;;16.60;48.54;99745.31;4937559;29;20036;-84
2021/12/25 09:41:35;;;;;;;38.17;7.53;;;;;;;16.82;48.29;99735.34;4918556;29;21193;-78
2021/12/25 09:44:06;;;;;;;21.15;5.13;;;;;;;16.59;48.80;99752.81;4942451;29;20036;-80
2021/12/25 09:46:33;;;;;;;19.40;4.63;;;;;;;16.70;48.79;99754.91;4944982;29;20435;-81
2021/12/25 09:48:59;;;;;;;32.70;6.72;;;;;;;16.94;47.93;99746.13;4944991;29;20482;-81
2021/12/25 09:51:25;;;;;;;27.00;8.80;;;;;;;16.85;48.38;99740.91;4944838;29;20038;-80
2021/12/25 09:54:02;;;;;;;22.80;5.65;;;;;;;16.81;48.31;99742.03;4946960;29;20031;-82
2021/12/25 09:56:30;;;;;;;29.77;6.05;;;;;;;16.74;48.58;99750.25;4927603;29;20503;-77
2021/12/25 09:58:55;;;;;;;25.13;7.55;;;;;;;16.99;48.11;99739.44;4944494;29;20112;-76
2021/12/25 10:01:40;;;;;;;19.10;5.45;;;;;;;16.79;48.43;99745.19;4936470;29;20106;-77
2021/12/25 10:04:07;;;;;;;23.02;5.85;;;;;;;16.72;48.79;99736.03;4942768;29;20501;-79
2021/12/25 10:06:39;;;;;;;30.83;6.28;;;;;;;16.69;48.73;99737.56;4946469;29;20087;-77
2021/12/25 10:09:12;;;;;;;31.77;8.57;;;;;;;16.91;48.58;99728.34;4942185;29;20491;-80
2021/12/25 10:11:37;;;;;;;25.48;5.18;;;;;;;16.77;48.84;99719.13;4947268;29;20055;-84
2021/12/25 10:14:03;;;;;;;25.70;7.00;;;;;;;16.75;49.03;99740.78;4944283;29;20040;-84
2021/12/25 10:16:31;;;;;;;35.50;8.30;;;;;;;16.65;49.14;99725.69;4941793;29;20035;-80
2021/12/25 10:19:20;;;;;;;33.65;8.65;;;;;;;16.36;49.84;99736.41;4943404;29;20090;-86
2021/12/25 10:21:47;;;;;;;20.00;6.20;;;;;;;17.06;48.16;99720.19;4942190;29;20020;-90
2021/12/25 10:24:18;;;;;;;28.88;7.03;;;;;;;16.65;48.99;99740.28;4942459;29;20095;-91
2021/12/25 10:26:47;;;;;;;24.23;6.82;;;;;;;16.53;49.17;99728.69;4941320;29;20494;-82
2021/12/25 10:29:19;;;;;;;25.10;5.05;;;;;;;16.43;49.20;99741.22;4926871;29;20039;-85
2021/12/25 10:31:45;;;;;;;21.98;6.10;;;;;;;16.67;49.01;99739.09;4940125;29;20019;-83
2021/12/25 10:34:23;;;;;;;24.42;6.78;;;;;;;16.64;48.96;99735.94;4944683;29;20478;-82
2021/12/25 10:36:51;;;;;;;19.30;5.57;;;;;;;16.50;49.44;99729.47;4949036;29;20375;-85
2021/12/25 10:39:22;;;;;;;23.15;8.07;;;;;;;16.49;49.42;99747.97;4943756;29;20090;-82
2021/12/25 10:41:54;;;;;;;25.73;7.10;;;;;;;16.67;48.95;99742.66;4944434;29;20438;-82
2021/12/25 10:44:24;;;;;;;22.60;5.25;;;;;;;16.65;48.70;99723.72;4952630;29;20035;-78
2021/12/25 10:46:56;;;;;;;26.85;7.22;;;;;;;16.65;49.03;99743.03;4954810;29;20062;-78
2021/12/25 10:49:24;;;;;;;24.83;5.93;;;;;;;16.60;49.28;99735.09;4955035;29;20035;-78
2021/12/25 10:51:49;;;;;;;22.02;7.78;;;;;;;17.07;47.80;99744.63;4954635;29;20023;-81
2021/12/25 10:54:17;;;;;;;31.50;7.20;;;;;;;16.98;48.20;99737.84;4945096;29;20028;-77
2021/12/25 10:56:46;;;;;;;23.05;5.18;;;;;;;17.02;48.05;99728.44;4942847;29;20090;-82
2021/12/25 10:59:15;;;;;;;22.80;6.38;;;;;;;16.79;48.36;99730.59;4944692;29;20031;-80
2021/12/25 11:01:50;;;;;;;25.67;5.97;;;;;;;16.75;48.49;99733.31;4942992;29;20016;-82
2021/12/25 11:04:35;;;;;;;24.95;7.68;;;;;;;16.92;48.26;99726.38;4944211;29;20032;-83
2021/12/25 11:07:17;;;;;;;35.75;7.88;;;;;;;17.25;47.31;99724.69;4943139;29;20527;-78
2021/12/25 11:10:06;;;;;;;34.67;8.27;;;;;;;17.42;46.85;99735.06;4940002;29;20546;-81
2021/12/25 11:12:34;;;;;;;17.58;5.63;;;;;;;17.21;47.22;99724.66;4900512;29;1337994;-79
2021/12/25 11:15:24;;;;;;;18.05;4.72;;;;;;;17.02;47.40;99724.91;4951757;28;20043;-77
2021/12/25 11:17:53;;;;;;;;;;;;;;;16.89;47.43;99725.16;4935731;29;20045;-77
2021/12/25 11:20:31;;;;;;;22.60;5.45;;;;;;;16.97;47.27;99709.47;4953173;29;19965;-77
2021/12/25 11:22:59;;;;;;;17.98;4.50;;;;;;;17.11;46.92;99720.63;4954401;29;20031;-77
2021/12/25 11:25:29;;;;;;;23.23;5.30;;;;;;;17.16;46.94;99717.53;4954686;29;20039;-78
2021/12/25 11:27:55;;;;;;;35.42;7.20;;;;;;;17.09;47.27;99722.19;4953611;29;20050;-78
2021/12/25 11:30:24;;;;;;;11.35;4.05;;;;;;;16.90;47.10;99720.44;4953652;29;20389;-77
2021/12/25 11:32:52;;;;;;;25.60;5.80;;;;;;;17.05;46.66;99721.38;4953566;29;20031;-77
2021/12/25 11:35:19;;;;;;;22.20;4.47;;;;;;;16.99;46.65;99726.44;4952854;29;20035;-77
2021/12/25 11:37:46;;;;;;;26.15;5.60;;;;;;;17.09;46.52;99720.22;4953668;29;20039;-77
2021/12/25 11:40:15;;;;;;;23.58;6.13;;;;;;;16.99;46.63;99720.13;4953728;29;20062;-78
2021/12/25 11:42:48;;;;;;;24.88;7.47;;;;;;;17.10;46.28;99708.00;4954314;29;20107;-81
2021/12/25 11:45:20;;;;;;;22.15;5.22;;;;;;;16.79;47.31;99708.53;4954794;29;20031;-78
2021/12/25 11:47:51;;;;;;;19.77;5.38;;;;;;;17.19;46.33;99710.44;4954802;29;20028;-83
2021/12/25 11:50:22;;;;;;;24.95;6.57;;;;;;;17.33;46.01;99709.78;4954675;29;20379;-82
2021/12/25 11:58:39;;;;;;;19.75;6.28;;;;;;;17.26;46.42;99709.72;4954568;29;20597;-77
2021/12/25 12:01:39;;;;;;;31.40;7.30;;;;;;;17.15;46.85;99701.31;4954561;29;20036;-77
2021/12/25 12:04:10;;;;;;;22.33;4.82;;;;;;;17.15;46.70;99698.56;4935107;29;20130;-77
2021/12/25 12:06:51;;;;;;;21.13;5.13;;;;;;;17.20;46.63;99695.47;4954427;29;20042;-76
2021/12/25 12:09:46;;;;;;;30.58;7.43;;;;;;;16.97;47.13;99692.91;4954569;29;20069;-76
2021/12/25 12:12:16;;;;;;;31.80;9.35;;;;;;;16.85;47.25;99677.47;4948684;29;20047;-76
2021/12/25 12:14:42;;;;;;;20.27;6.82;;;;;;;17.00;46.86;99686.63;4954427;29;20110;-76
2021/12/25 12:17:19;;;;;;;27.17;6.10;;;;;;;17.12;46.93;99685.53;4954191;29;20545;-82
2021/12/25 12:19:48;;;;;;;36.45;6.68;;;;;;;17.03;47.12;99688.63;4954313;29;20038;-76
2021/12/25 12:22:23;;;;;;;29.33;6.70;;;;;;;17.05;47.15;99683.53;4954385;29;20023;-76
2021/12/25 12:27:56;;;;;;;22.33;5.85;;;;;;;16.81;47.59;99678.59;4941542;29;20031;-76
2021/12/25 12:30:34;;;;;;;42.50;8.23;;;;;;;17.26;46.66;99677.38;4958177;29;20039;-76
2021/12/25 12:33:11;;;;;;;25.35;6.07;;;;;;;17.12;47.07;99672.53;4958198;29;20042;-78
2021/12/25 12:35:42;;;;;;;31.02;7.10;;;;;;;17.17;46.83;99672.19;4958197;29;20027;-77
2021/12/25 12:38:28;;;;;;;25.83;6.03;;;;;;;17.12;46.85;99672.53;4958025;29;20035;-77
2021/12/25 12:41:13;;;;;;;27.23;7.80;;;;;;;17.25;46.71;99672.25;4958084;29;20478;-77
2021/12/25 12:43:57;;;;;;;20.80;6.32;;;;;;;17.14;46.79;99672.94;4940727;29;20118;-77
2021/12/25 12:46:45;;;;;;;13.07;4.53;;;;;;;16.93;47.39;99670.03;4957911;29;20130;-77
2021/12/25 12:49:10;;;;;;;18.70;5.80;;;;;;;17.04;47.06;99678.38;4924660;29;20039;-77
2021/12/25 12:51:36;;;;;;;17.63;4.68;;;;;;;16.64;48.00;99669.75;4957878;29;20057;-77
2021/12/25 12:54:03;;;;;;;26.60;9.25;;;;;;;17.01;47.13;99660.63;4957708;29;20055;-77
2021/12/25 12:56:29;;;;;;;20.27;6.45;;;;;;;17.15;46.62;99663.50;4957876;29;20035;-77
2021/12/25 12:58:57;;;;;;;23.65;7.07;;;;;;;17.01;47.05;99668.91;4957668;29;20501;-81
2021/12/25 13:01:27;;;;;;;24.20;5.15;;;;;;;17.13;46.97;99654.00;4957596;29;20058;-77